Airfield :
LOGIN :

Register | Disclaimer

   EN    FR    IT 

 










Legend :    VFR   Marginal VFR   IFR   Intensive IFR   Very Intensive IFR
Visi :
Ceiling :
>= 8 km
>= 3000ft
5 to 8 km
1000 to 3000 ft
1500m to 5 km
500 to 1000 ft
800 to 1500m
200 to 500 ft
< 800m
< 200 ft
Symbols :   Thunderstorms  Fog  Heavy snow  Heavy precipitations  Wind > 20 kt
SIGMETs :     Misc.  Thunderstorms  Icing  Turbulence  Mountain Waves  Volcanic Ashes






- Airport Elevation : 65 ft
- IATA code : ADA


LTAF - Adana

CURRENT METAR :
  • 090806Z 35004KT 290V100 9999 FEW025CB BKN030 19/12 Q1012 TEMPO FM0900 -TSRA

EXPIRED METARs :
  • 090750Z 35004KT 290V100 9999 SCT035 BKN100 19/12 Q1012 NOSIG
  • 090720Z VRB03KT 9999 SCT035 BKN100 19/11 Q1012 NOSIG
  • 090650Z VRB02KT 9999 SCT035 BKN100 18/12 Q1012 NOSIG
  • 090620Z VRB04KT 9999 SCT035 BKN100 18/13 Q1012 NOSIG
  • 090550Z 05006KT 010V080 9999 SCT035 BKN100 16/12 Q1012 NOSIG
  • 090520Z 04006KT 9999 SCT035 BKN100 16/13 Q1012 NOSIG RMK RWY23 06005KT

TAF TAF LTAF
Valid from the 09 at 06:00 until the 10 at 06:00 UTC


090440Z 0906/1006 VRB02KT 9999 SCT035 BKN100
BECMG 0908/0910 21012KT
PROB40
TEMPO 0910/0914 -TSRA FEW025CB BKN030
BECMG 0917/0919 VRB02KT



MET'MAP, your aeronautical weather chart ! - Copyright ORBIFLY December 2007 - Disclaimer

ORBIFLY MET'MAP TEAM :

Programming & Development : Alexandra Zaïnal
Concept & original design : Baudouin d'Aumeries
Assistance for programming : Marc-Olivier Méhu
Technical & hardware support : Manuel Goepfert

Contact : metmap@orbifly.com




SOURCES & CREDITS :

   NOAA